Terminal Aerodrome Forecast
Issued by NWS Wakefield, VA

Home | Current Version | Previous Version | Text Only | Print | Product List | Glossary On
Versions: 1 2 3 4 5 6 7 8 9 10 11 12 13 14 15 16
749
FTUS41 KAKQ 262339
TAFORF
TAF
KORF 262339Z 2700/2724 18010KT P6SM VCSH SCT040 BKN080
     FM270100 20004KT P6SM BKN060
     FM270600 22004KT P6SM SCT080 BKN250
     FM271300 30006KT P6SM SCT250
     FM271700 06007KT P6SM SCT250=

USA.gov is the U.S. government's official web portal to all federal, state and local government web resources and services.